EPKK

John Paul II International Kraków-Balice Airport

Kraków, Poland
TAF EPKK 251430Z 2515/2615 27014KT 9999 SCT023 TEMPO 2515/2518 SHRA BKN013CB BECMG 2520/2522 24004KT PROB30 TEMPO 2602/2606 0800 FG BKN004 BECMG 2610/2612 25014KT
Issued Valid From Valid To
Sep-25 @ 14:30 UTC
(3 hours ago)
Sep-25 @ 15:00 UTC
(2 hours ago)
Sep-26 @ 15:00 UTC
(in 22 hours)
Sep-25 @ 15:00 to Sep-25 @ 20:00
TAF EPKK 251430Z 2515/2615 27014KT 9999 SCT023
Wind Visibility Clouds
270° at 14 knots 10,000+ meters
  • Scattered at 2,300' AGL
Temporary Sep-25 @ 15:00 to Sep-25 @ 18:00
TEMPO 2515/2518 SHRA BKN013CB
Clouds Conditions
  • Broken at 1,300' AGL
  • Rain
Becoming Sep-25 @ 20:00 to Sep-26 @ 10:00
BECMG 2520/2522 24004KT
Wind Visibility Clouds
240° at 4 knots 10,000+ meters
  • Scattered at 2,300' AGL
Temporary  (Probability 30%) Sep-26 @ 02:00 to Sep-26 @ 06:00
PROB30 TEMPO 2602/2606 0800 FG BKN004
Visibility Clouds Conditions
805 meters
  • Broken at 400' AGL
  • Fog
Becoming Sep-26 @ 10:00 to Sep-26 @ 15:00
BECMG 2610/2612 25014KT
Wind Visibility Clouds
250° at 14 knots 10,000+ meters
  • Scattered at 2,300' AGL
TAF EPKK 251430Z 2515/2615 27014KT 9999 SCT023 TEMPO 2515/2518 SHRA BKN013CB BECMG 2520/2522 24004KT PROB30 TEMPO 2602/2606 0800 FG BKN004 BECMG 2610/2612 25014KT
Issued Sep-25 @ 14:30 UTC
(3 hours ago)
Valid From Sep-25 @ 15:00 UTC
(2 hours ago)
Valid To Sep-26 @ 15:00 UTC
(in 22 hours)
Sep-25 @ 15:00 - Sep-25 @ 20:00
Wind Visibility
270° at 14 knots 10,000+ meters
Clouds
  • Scattered at 2,300' AGL
Temporary Sep-25 @ 15:00 - Sep-25 @ 18:00
Clouds
  • Broken at 1,300' AGL
Conditions
  • Rain
Becoming Sep-25 @ 20:00 - Sep-26 @ 10:00
Wind Visibility
240° at 4 knots 10,000+ meters
Clouds
  • Scattered at 2,300' AGL
Probability 30% Temporary Sep-26 @ 02:00 - Sep-26 @ 06:00
Clouds
  • Broken at 400' AGL
Conditions
  • Fog
Becoming Sep-26 @ 10:00 - Sep-26 @ 15:00
Wind Visibility
250° at 14 knots 10,000+ meters
Clouds
  • Scattered at 2,300' AGL